Time;durP1;ratioP1;P1;durP2;ratioP2;P2;SDS_P1;SDS_P2;PMS_P1;PMS_P2;Temp;Humidity;BMP_temperature;BMP_pressure;BME280_temperature;BME280_humidity;BME280_pressure;Samples;Min_cycle;Max_cycle;Signal;HPM_P1;HPM_P2
2021/10/03 00:01:53;;;;;;;3.47;0.10;;;25.80;55.80;;;;;;5061987;28;20817;-50
2021/10/03 00:04:21;;;;;;;4.25;0.05;;;25.80;55.80;;;;;;5061898;28;20120;-50
2021/10/03 00:06:48;;;;;;;2.95;0.10;;;25.80;56.00;;;;;;5066641;28;20048;-53
2021/10/03 00:09:16;;;;;;;0.98;0.10;;;25.80;55.90;;;;;;5057910;28;20047;-49
2021/10/03 00:11:43;;;;;;;3.00;0.10;;;25.70;55.80;;;;;;5065652;28;20036;-52
2021/10/03 00:14:12;;;;;;;0.40;0.10;;;25.80;55.90;;;;;;5062169;28;20033;-51
2021/10/03 00:16:39;;;;;;;3.47;0.10;;;25.70;55.80;;;;;;5062024;28;20051;-49
2021/10/03 00:19:08;;;;;;;2.08;0.10;;;25.70;55.90;;;;;;5066656;28;20040;-50
2021/10/03 00:21:35;;;;;;;0.10;0.08;;;25.70;55.90;;;;;;5058141;28;20037;-50
2021/10/03 00:24:02;;;;;;;2.05;0.10;;;25.70;55.90;;;;;;5061720;28;20040;-50
2021/10/03 00:26:29;;;;;;;0.22;0.10;;;25.70;56.00;;;;;;5059086;28;20060;-49
2021/10/03 00:28:56;;;;;;;3.83;0.10;;;25.70;55.90;;;;;;5061692;28;20172;-52
2021/10/03 00:31:23;;;;;;;4.15;0.20;;;25.70;56.00;;;;;;5063687;28;20039;-49
2021/10/03 00:33:50;;;;;;;2.40;0.10;;;25.70;56.10;;;;;;5051290;28;20052;-48
2021/10/03 00:36:18;;;;;;;2.17;0.10;;;25.70;55.80;;;;;;5051349;28;20431;-50
2021/10/03 00:38:45;;;;;;;0.30;0.30;;;25.70;55.70;;;;;;5049288;28;20048;-51
2021/10/03 00:41:13;;;;;;;1.48;0.15;;;25.70;55.70;;;;;;5050379;28;20412;-53
2021/10/03 00:43:41;;;;;;;1.67;0.10;;;25.60;55.70;;;;;;5047215;28;20142;-50
2021/10/03 00:46:08;;;;;;;0.50;0.10;;;25.50;55.70;;;;;;5063252;28;20041;-48
2021/10/03 00:48:35;;;;;;;3.30;0.17;;;25.50;55.80;;;;;;5059054;28;20032;-51
2021/10/03 00:51:02;;;;;;;1.48;0.10;;;25.40;55.90;;;;;;5055472;28;20129;-48
2021/10/03 00:53:31;;;;;;;1.13;0.10;;;25.40;56.00;;;;;;5060477;28;20033;-52
2021/10/03 00:55:58;;;;;;;0.20;0.20;;;25.30;56.10;;;;;;5050135;28;20048;-50
2021/10/03 00:58:26;;;;;;;0.77;0.10;;;25.30;56.30;;;;;;5046689;28;20481;-51
2021/10/03 01:00:53;;;;;;;0.95;0.10;;;25.20;56.40;;;;;;5064575;28;20090;-51
2021/10/03 01:03:20;;;;;;;0.20;0.10;;;25.10;56.40;;;;;;5052522;28;20044;-48
2021/10/03 01:05:47;;;;;;;0.32;0.15;;;25.10;56.60;;;;;;5055773;28;20044;-47
2021/10/03 01:08:14;;;;;;;0.20;0.10;;;25.10;56.80;;;;;;5054501;28;20063;-50
2021/10/03 01:10:43;;;;;;;1.63;0.10;;;25.00;56.90;;;;;;5054846;28;20056;-49
2021/10/03 01:13:12;;;;;;;1.38;0.10;;;25.00;57.10;;;;;;5051048;28;20044;-52
2021/10/03 01:15:42;;;;;;;1.95;1.00;;;24.90;57.20;;;;;;5055581;28;20441;-49
2021/10/03 01:18:11;;;;;;;2.20;0.10;;;24.90;57.40;;;;;;5058494;28;20734;-50
2021/10/03 01:20:40;;;;;;;0.30;0.00;;;24.80;57.50;;;;;;5061922;28;20048;-49
2021/10/03 01:23:09;;;;;;;0.25;0.10;;;24.80;57.60;;;;;;5053359;28;20062;-53
2021/10/03 01:25:39;;;;;;;1.05;0.10;;;24.70;57.70;;;;;;5060268;28;20127;-50
2021/10/03 01:28:07;;;;;;;0.75;0.10;;;24.70;57.90;;;;;;5055310;28;20402;-47
2021/10/03 01:30:36;;;;;;;0.10;0.10;;;24.70;58.00;;;;;;5062858;28;20047;-47
2021/10/03 01:33:04;;;;;;;0.80;0.10;;;24.70;58.20;;;;;;5058333;28;20043;-47
2021/10/03 01:35:31;;;;;;;1.30;0.10;;;24.60;58.20;;;;;;5061839;28;20037;-46
2021/10/03 01:37:59;;;;;;;0.20;0.10;;;24.60;58.30;;;;;;5050673;28;20128;-48
2021/10/03 01:40:29;;;;;;;0.10;0.05;;;24.60;58.40;;;;;;5059494;28;20420;-47
2021/10/03 01:42:57;;;;;;;0.10;0.10;;;24.50;58.40;;;;;;5050550;28;20519;-48
2021/10/03 01:45:25;;;;;;;0.65;0.10;;;24.50;58.50;;;;;;5049633;28;20094;-47
2021/10/03 01:48:08;;;;;;;0.10;0.10;;;24.50;58.60;;;;;;5056983;28;20468;-47
2021/10/03 01:50:40;;;;;;;0.20;0.20;;;24.50;58.60;;;;;;5062565;28;20513;-47
2021/10/03 01:53:08;;;;;;;0.10;0.10;;;24.50;58.80;;;;;;5066204;28;20112;-47
2021/10/03 01:55:38;;;;;;;0.50;0.32;;;24.40;58.80;;;;;;5058647;28;20044;-50
2021/10/03 01:58:06;;;;;;;1.75;0.35;;;24.40;58.90;;;;;;5058288;28;20045;-48
2021/10/03 02:00:33;;;;;;;0.77;0.10;;;24.40;58.90;;;;;;5065355;28;20370;-49
2021/10/03 02:03:02;;;;;;;0.22;0.22;;;24.40;59.00;;;;;;5061181;28;20052;-51
2021/10/03 02:05:36;;;;;;;0.10;0.10;;;24.30;59.00;;;;;;5062602;28;20048;-51
2021/10/03 02:08:03;;;;;;;0.20;0.10;;;24.30;59.00;;;;;;5052561;28;20089;-49
2021/10/03 02:10:30;;;;;;;0.30;0.10;;;24.30;59.10;;;;;;5050681;28;20037;-53
2021/10/03 02:12:59;;;;;;;0.73;0.10;;;24.30;59.10;;;;;;5051302;28;20547;-50
2021/10/03 02:15:26;;;;;;;0.43;0.15;;;24.30;59.20;;;;;;5052594;28;20037;-50
2021/10/03 02:17:53;;;;;;;1.85;0.10;;;24.20;59.20;;;;;;5056746;28;20051;-49
2021/10/03 02:20:21;;;;;;;0.90;0.20;;;24.20;59.30;;;;;;5063875;28;20033;-48
2021/10/03 02:22:49;;;;;;;0.10;0.10;;;24.20;59.40;;;;;;5049013;28;20600;-47
2021/10/03 02:25:17;;;;;;;1.88;0.32;;;24.20;59.50;;;;;;5065179;28;20044;-47
2021/10/03 02:27:44;;;;;;;2.90;0.10;;;24.20;59.50;;;;;;5053401;28;20063;-49
2021/10/03 02:30:13;;;;;;;0.20;0.10;;;24.20;59.60;;;;;;5061521;28;20382;-51
2021/10/03 02:32:40;;;;;;;1.52;0.10;;;24.10;59.60;;;;;;5060919;28;20041;-49
2021/10/03 02:35:10;;;;;;;0.10;0.10;;;24.10;59.60;;;;;;5053107;28;20044;-52
2021/10/03 02:37:39;;;;;;;0.10;0.10;;;24.10;59.70;;;;;;5050194;28;20154;-51
2021/10/03 02:40:09;;;;;;;0.57;0.30;;;24.10;59.70;;;;;;5053970;28;20033;-50
2021/10/03 02:42:37;;;;;;;1.90;0.20;;;24.10;59.80;;;;;;5051059;28;20084;-49
2021/10/03 02:45:06;;;;;;;0.40;0.40;;;24.00;59.80;;;;;;5052683;28;20056;-49
2021/10/03 02:47:35;;;;;;;1.17;0.10;;;24.10;59.80;;;;;;5053065;28;20052;-48
2021/10/03 02:50:03;;;;;;;0.30;0.10;;;24.10;59.80;;;;;;5050724;28;20052;-50
2021/10/03 02:52:31;;;;;;;0.20;0.10;;;24.00;59.80;;;;;;5065715;28;20393;-49
2021/10/03 02:54:58;;;;;;;0.52;0.10;;;24.00;59.90;;;;;;5050761;28;20531;-51
2021/10/03 02:57:25;;;;;;;0.30;0.10;;;24.00;59.90;;;;;;5054362;28;20045;-50
2021/10/03 02:59:52;;;;;;;0.25;0.25;;;24.00;60.00;;;;;;5060991;28;20037;-49
2021/10/03 03:02:19;;;;;;;0.40;0.10;;;24.00;60.00;;;;;;5061635;28;20052;-51
2021/10/03 03:04:47;;;;;;;0.40;0.10;;;24.00;60.10;;;;;;5048419;28;20037;-49
2021/10/03 03:07:14;;;;;;;1.20;0.10;;;23.90;60.10;;;;;;5051991;28;20098;-47
2021/10/03 03:09:41;;;;;;;0.63;0.10;;;23.90;60.10;;;;;;5052751;28;20033;-48
2021/10/03 03:12:08;;;;;;;1.48;0.20;;;23.90;60.20;;;;;;5059764;28;20123;-49
2021/10/03 03:14:35;;;;;;;2.15;0.43;;;23.90;60.20;;;;;;5063475;28;20045;-48
2021/10/03 03:17:15;;;;;;;0.20;0.10;;;23.90;60.30;;;;;;5064072;28;20032;-50
2021/10/03 03:19:43;;;;;;;5.28;0.10;;;23.90;60.30;;;;;;5050025;28;20041;-49
2021/10/03 03:22:12;;;;;;;0.68;0.68;;;23.90;60.30;;;;;;5064231;28;20090;-49
2021/10/03 03:24:40;;;;;;;0.20;0.20;;;23.90;60.30;;;;;;5048087;28;20068;-52
2021/10/03 03:27:07;;;;;;;0.80;0.13;;;23.90;60.30;;;;;;5047010;28;20679;-49
2021/10/03 03:29:35;;;;;;;0.20;0.10;;;23.90;60.40;;;;;;5054249;28;20121;-49
2021/10/03 03:32:02;;;;;;;1.48;0.10;;;23.90;60.40;;;;;;5063989;28;20036;-47
2021/10/03 03:34:30;;;;;;;0.13;0.13;;;23.90;60.40;;;;;;5047838;28;20061;-48
2021/10/03 03:36:57;;;;;;;3.70;0.50;;;23.90;60.40;;;;;;5049442;28;20130;-49
2021/10/03 03:39:25;;;;;;;0.40;0.40;;;23.90;60.40;;;;;;5051773;28;20053;-48
2021/10/03 03:41:53;;;;;;;0.30;0.10;;;23.80;60.40;;;;;;5056948;28;20037;-49
2021/10/03 03:44:20;;;;;;;0.10;0.10;;;23.80;60.40;;;;;;5051626;28;20063;-51
2021/10/03 03:46:47;;;;;;;0.40;0.10;;;23.80;60.40;;;;;;5051370;28;20504;-48
2021/10/03 03:49:14;;;;;;;0.20;0.20;;;23.80;60.40;;;;;;5047705;28;20070;-50
2021/10/03 03:51:42;;;;;;;0.10;0.10;;;23.80;60.40;;;;;;5058141;28;20036;-52
2021/10/03 03:54:09;;;;;;;0.45;0.10;;;23.80;60.50;;;;;;5058346;28;20048;-50
2021/10/03 03:56:37;;;;;;;0.13;0.10;;;23.80;60.50;;;;;;5058541;28;20045;-47
2021/10/03 03:59:07;;;;;;;2.47;0.20;;;23.80;60.50;;;;;;5048976;28;20057;-50
2021/10/03 04:01:34;;;;;;;1.10;0.20;;;23.80;60.50;;;;;;5062499;28;20037;-52
2021/10/03 04:04:01;;;;;;;0.63;0.63;;;23.80;60.50;;;;;;5048597;28;20044;-49
2021/10/03 04:06:28;;;;;;;0.60;0.10;;;23.70;60.50;;;;;;5060193;28;20409;-50
2021/10/03 04:08:55;;;;;;;0.10;0.10;;;23.70;60.50;;;;;;5055519;28;20041;-49
2021/10/03 04:11:23;;;;;;;0.30;0.10;;;23.70;60.50;;;;;;5050525;28;20037;-48
2021/10/03 04:13:51;;;;;;;0.30;0.10;;;23.70;60.50;;;;;;5050839;28;20045;-46
2021/10/03 04:16:18;;;;;;;0.25;0.20;;;23.70;60.50;;;;;;5048049;28;20763;-50
2021/10/03 04:18:45;;;;;;;0.22;0.20;;;23.70;60.50;;;;;;5048177;28;20052;-52
2021/10/03 04:21:12;;;;;;;0.40;0.10;;;23.70;60.50;;;;;;5046402;28;20045;-48
2021/10/03 04:23:39;;;;;;;1.02;0.22;;;23.70;60.50;;;;;;5050376;28;20049;-48
2021/10/03 04:26:06;;;;;;;0.52;0.20;;;23.70;60.50;;;;;;5050823;28;20047;-48
2021/10/03 04:28:33;;;;;;;0.47;0.20;;;23.70;60.50;;;;;;5049334;28;20420;-51
2021/10/03 04:31:01;;;;;;;1.17;0.10;;;23.70;60.50;;;;;;5062767;28;20036;-50
2021/10/03 04:33:28;;;;;;;0.43;0.13;;;23.70;60.50;;;;;;5056070;28;20041;-50
2021/10/03 04:35:55;;;;;;;0.40;0.30;;;23.70;60.60;;;;;;5055935;28;20042;-48
2021/10/03 04:38:22;;;;;;;1.00;0.20;;;23.70;60.60;;;;;;5049173;28;20037;-52
2021/10/03 04:40:49;;;;;;;1.95;0.10;;;23.70;60.60;;;;;;5053487;28;20580;-47
2021/10/03 04:43:16;;;;;;;0.50;0.50;;;23.70;60.60;;;;;;5051043;28;20048;-51
2021/10/03 04:45:43;;;;;;;0.60;0.20;;;23.70;60.60;;;;;;5054126;28;20152;-48
2021/10/03 04:48:11;;;;;;;0.73;0.73;;;23.70;60.60;;;;;;5054160;28;20041;-50
2021/10/03 04:50:38;;;;;;;3.75;0.10;;;23.70;60.70;;;;;;5053907;28;20069;-49
2021/10/03 04:53:06;;;;;;;0.40;0.10;;;23.70;60.70;;;;;;5053614;28;20036;-52
2021/10/03 04:55:32;;;;;;;0.80;0.20;;;23.70;60.70;;;;;;5052780;28;20516;-52
2021/10/03 04:57:59;;;;;;;0.75;0.20;;;23.60;60.60;;;;;;5052398;28;20037;-50
2021/10/03 05:00:26;;;;;;;4.03;0.30;;;23.60;60.70;;;;;;5062694;28;20041;-49
2021/10/03 05:02:54;;;;;;;0.85;0.10;;;23.60;60.60;;;;;;5059756;28;20048;-50
2021/10/03 05:05:23;;;;;;;1.05;0.40;;;23.60;60.70;;;;;;5056357;28;20057;-50
2021/10/03 05:07:50;;;;;;;0.95;0.20;;;23.60;60.70;;;;;;5053551;28;20505;-48
2021/10/03 05:10:17;;;;;;;0.40;0.20;;;23.60;60.70;;;;;;5051652;28;20521;-51
2021/10/03 05:12:44;;;;;;;2.15;0.30;;;23.60;60.80;;;;;;5070152;28;20497;-48
2021/10/03 05:15:11;;;;;;;2.42;0.20;;;23.60;60.80;;;;;;5066426;28;20049;-51
2021/10/03 05:17:38;;;;;;;3.58;0.28;;;23.60;60.80;;;;;;5068040;28;20029;-49
2021/10/03 05:20:06;;;;;;;0.20;0.17;;;23.60;60.80;;;;;;5069085;28;20040;-48
2021/10/03 05:22:35;;;;;;;1.70;0.80;;;23.60;60.90;;;;;;5058437;28;20054;-52
2021/10/03 05:25:03;;;;;;;5.95;0.40;;;23.60;61.00;;;;;;5069328;28;20528;-54
2021/10/03 05:27:30;;;;;;;3.38;0.60;;;23.60;61.00;;;;;;5062920;28;20517;-66
2021/10/03 05:29:57;;;;;;;2.13;0.20;;;23.60;61.60;;;;;;5063631;28;20521;-74
2021/10/03 05:32:24;;;;;;;2.05;0.20;;;23.60;62.00;;;;;;5066576;28;20041;-63
2021/10/03 05:34:50;;;;;;;2.40;0.28;;;23.60;62.20;;;;;;5067450;28;20618;-60
2021/10/03 05:37:17;;;;;;;2.05;0.10;;;23.60;62.20;;;;;;5065136;28;20032;-62
2021/10/03 05:39:46;;;;;;;0.63;0.15;;;23.60;62.20;;;;;;5065525;28;20080;-62
2021/10/03 05:42:13;;;;;;;0.25;0.10;;;23.70;62.10;;;;;;5066056;28;20028;-64
2021/10/03 05:44:40;;;;;;;0.82;0.20;;;23.70;62.00;;;;;;5065833;28;20053;-61
2021/10/03 05:47:07;;;;;;;0.57;0.32;;;23.80;61.90;;;;;;5067705;28;20036;-64
2021/10/03 05:49:34;;;;;;;0.40;0.10;;;23.90;61.70;;;;;;5067625;28;20821;-64
2021/10/03 05:52:01;;;;;;;0.95;0.40;;;24.00;61.50;;;;;;5067497;28;20085;-64
2021/10/03 05:54:28;;;;;;;1.67;0.10;;;24.10;61.10;;;;;;5068455;28;20064;-75
2021/10/03 05:56:57;;;;;;;1.75;0.10;;;24.20;60.70;;;;;;5061610;28;20079;-70
2021/10/03 05:59:24;;;;;;;1.00;0.30;;;24.30;60.30;;;;;;5064212;28;20123;-73
2021/10/03 06:01:51;;;;;;;1.27;0.10;;;24.40;60.00;;;;;;5064527;28;20111;-70
2021/10/03 06:04:18;;;;;;;0.20;0.10;;;24.50;59.60;;;;;;5065730;28;20056;-73
2021/10/03 06:06:45;;;;;;;1.65;0.10;;;24.70;59.30;;;;;;5065457;28;20048;-74
2021/10/03 06:09:12;;;;;;;1.20;0.22;;;24.80;59.00;;;;;;5064325;28;20037;-73
2021/10/03 06:11:38;;;;;;;0.28;0.28;;;24.90;58.60;;;;;;5061310;28;20028;-73
2021/10/03 06:14:07;;;;;;;1.45;0.20;;;24.90;58.20;;;;;;5064332;28;20543;-72
2021/10/03 06:16:35;;;;;;;0.55;0.10;;;25.00;57.90;;;;;;5067465;28;20040;-69
2021/10/03 06:19:02;;;;;;;0.32;0.10;;;25.10;57.70;;;;;;5064763;28;20044;-66
2021/10/03 06:21:30;;;;;;;0.10;0.10;;;25.20;57.50;;;;;;5063473;28;20037;-58
2021/10/03 06:23:57;;;;;;;0.10;0.10;;;25.20;57.20;;;;;;5061889;28;20048;-54
2021/10/03 06:26:24;;;;;;;0.47;0.10;;;25.30;57.10;;;;;;5063820;28;20036;-49
2021/10/03 06:28:51;;;;;;;0.85;0.10;;;25.40;56.90;;;;;;5064045;28;20539;-59
2021/10/03 06:31:19;;;;;;;1.10;0.10;;;25.40;56.70;;;;;;5065600;28;20525;-64
2021/10/03 06:33:46;;;;;;;0.82;0.10;;;25.50;56.50;;;;;;5064781;28;20036;-46
2021/10/03 06:36:13;;;;;;;2.08;0.10;;;25.50;57.00;;;;;;5063255;28;20051;-55
2021/10/03 06:38:40;;;;;;;0.20;0.10;;;25.60;56.30;;;;;;5061842;28;20036;-44
2021/10/03 06:41:07;;;;;;;1.67;0.10;;;25.70;56.20;;;;;;5065122;28;20501;-46
2021/10/03 06:43:38;;;;;;;8.30;0.10;;;25.70;55.90;;;;;;5067047;28;20059;-49
2021/10/03 06:46:05;;;;;;;0.30;0.30;;;25.60;55.70;;;;;;5058998;28;20081;-47
2021/10/03 06:48:34;;;;;;;0.10;0.10;;;25.50;55.70;;;;;;5051230;28;20041;-51
2021/10/03 06:51:01;;;;;;;1.10;0.10;;;25.50;55.80;;;;;;5059578;28;20045;-49
2021/10/03 06:53:28;;;;;;;1.95;0.20;;;25.30;55.70;;;;;;5052482;28;20059;-52
2021/10/03 06:55:55;;;;;;;0.10;0.10;;;25.30;55.90;;;;;;5049772;28;20447;-48
2021/10/03 06:58:22;;;;;;;1.13;0.10;;;25.20;56.00;;;;;;5051132;28;20060;-47
2021/10/03 07:00:49;;;;;;;2.85;0.20;;;25.10;56.20;;;;;;5065363;28;20075;-50
2021/10/03 07:03:16;;;;;;;1.15;0.13;;;25.00;56.20;;;;;;5053571;28;20063;-47
2021/10/03 07:05:45;;;;;;;1.95;0.10;;;24.90;56.30;;;;;;5055741;28;20509;-50
2021/10/03 07:08:13;;;;;;;1.85;0.10;;;24.90;56.40;;;;;;5051451;28;20053;-48
2021/10/03 07:10:40;;;;;;;2.08;0.10;;;24.80;57.20;;;;;;5048123;28;20091;-50
2021/10/03 07:13:07;;;;;;;2.35;0.20;;;24.80;56.70;;;;;;5052001;28;20047;-51
2021/10/03 07:15:34;;;;;;;0.30;0.20;;;24.70;56.80;;;;;;5062500;28;20044;-49
2021/10/03 07:18:01;;;;;;;0.30;0.30;;;24.70;56.90;;;;;;5057322;28;20754;-51
2021/10/03 07:20:29;;;;;;;0.82;0.10;;;24.60;56.90;;;;;;5064895;28;20033;-51
2021/10/03 07:22:57;;;;;;;1.48;0.10;;;24.60;57.00;;;;;;5049566;28;20033;-48
2021/10/03 07:25:24;;;;;;;1.65;0.10;;;24.50;57.10;;;;;;5050597;28;20056;-49
2021/10/03 07:27:51;;;;;;;0.10;0.10;;;24.50;57.10;;;;;;5050557;28;20049;-49
2021/10/03 07:30:18;;;;;;;0.63;0.10;;;24.40;57.10;;;;;;5060788;28;20500;-48
2021/10/03 07:32:45;;;;;;;0.05;0.00;;;24.40;57.20;;;;;;5065742;28;20037;-47
2021/10/03 07:35:12;;;;;;;1.08;0.10;;;24.40;57.30;;;;;;5050278;28;20036;-52
2021/10/03 07:37:39;;;;;;;3.42;0.10;;;24.30;57.30;;;;;;5063349;28;20045;-48
2021/10/03 07:40:09;;;;;;;0.13;0.10;;;24.30;57.40;;;;;;5052685;28;20037;-49
2021/10/03 07:42:37;;;;;;;0.52;0.20;;;24.20;57.40;;;;;;5051312;28;20421;-53
2021/10/03 07:45:05;;;;;;;0.20;0.00;;;24.20;57.50;;;;;;5051887;28;20094;-51
2021/10/03 07:47:32;;;;;;;0.40;0.40;;;24.10;57.50;;;;;;5049926;28;20131;-48
2021/10/03 07:49:59;;;;;;;0.30;0.25;;;24.10;57.50;;;;;;5049559;28;20037;-49
2021/10/03 07:52:26;;;;;;;0.43;0.10;;;24.10;57.60;;;;;;5065383;28;20051;-52
2021/10/03 07:54:53;;;;;;;1.23;0.00;;;24.10;57.70;;;;;;5065960;28;20041;-47
2021/10/03 07:57:21;;;;;;;0.43;0.10;;;24.00;57.60;;;;;;5056204;28;20517;-49
2021/10/03 07:59:48;;;;;;;1.75;0.10;;;24.00;57.70;;;;;;5062150;28;20048;-49
2021/10/03 08:02:15;;;;;;;2.35;0.32;;;24.00;57.70;;;;;;5061325;28;20531;-52
2021/10/03 08:04:42;;;;;;;1.27;0.10;;;24.00;57.80;;;;;;5049721;28;20044;-51
2021/10/03 08:07:09;;;;;;;0.55;0.10;;;23.90;57.80;;;;;;5052203;28;20053;-46
2021/10/03 08:09:38;;;;;;;0.30;0.05;;;23.90;57.80;;;;;;5050811;28;20156;-49
2021/10/03 08:12:05;;;;;;;2.00;0.22;;;23.90;57.90;;;;;;5050506;28;20045;-50
2021/10/03 08:14:33;;;;;;;0.10;0.10;;;23.90;57.90;;;;;;5055864;28;20036;-51
2021/10/03 08:17:00;;;;;;;0.40;0.10;;;23.90;58.00;;;;;;5066354;28;20044;-48
2021/10/03 08:19:29;;;;;;;1.42;0.20;;;23.90;58.00;;;;;;5052225;28;20047;-50
2021/10/03 08:21:56;;;;;;;0.22;0.22;;;23.80;58.00;;;;;;5069942;28;20087;-52
2021/10/03 08:24:23;;;;;;;0.10;0.00;;;23.80;58.10;;;;;;5057878;28;20051;-49
2021/10/03 08:26:50;;;;;;;0.35;0.10;;;23.80;58.10;;;;;;5056704;28;20048;-48
2021/10/03 08:29:17;;;;;;;0.75;0.10;;;23.80;58.10;;;;;;5066496;28;20036;-52
2021/10/03 08:31:46;;;;;;;0.63;0.10;;;23.70;58.10;;;;;;5065950;28;20041;-49
2021/10/03 08:34:13;;;;;;;0.43;0.10;;;23.70;58.20;;;;;;5055589;28;20044;-50
2021/10/03 08:36:40;;;;;;;0.20;0.10;;;23.70;58.30;;;;;;5065992;28;20047;-52
2021/10/03 08:39:07;;;;;;;0.30;0.10;;;23.70;58.30;;;;;;5070218;28;20045;-53
2021/10/03 08:41:34;;;;;;;0.20;0.20;;;23.70;58.30;;;;;;5062577;28;20045;-50
2021/10/03 08:44:01;;;;;;;0.10;0.10;;;23.70;58.30;;;;;;5068229;28;20094;-49
2021/10/03 08:46:29;;;;;;;0.25;0.10;;;23.70;58.40;;;;;;5053489;28;20199;-51
2021/10/03 08:49:01;;;;;;;1.50;0.10;;;23.60;58.40;;;;;;5053114;28;20040;-52
2021/10/03 08:51:29;;;;;;;0.77;0.10;;;23.70;58.50;;;;;;5057175;28;20643;-49
2021/10/03 08:53:57;;;;;;;0.15;0.13;;;23.60;58.50;;;;;;5058372;28;20090;-48
2021/10/03 08:56:26;;;;;;;0.10;0.08;;;23.60;58.50;;;;;;5064840;28;20055;-50
2021/10/03 08:58:53;;;;;;;0.10;0.10;;;23.60;58.50;;;;;;5061574;28;20044;-50
2021/10/03 09:01:21;;;;;;;0.93;0.20;;;23.60;58.50;;;;;;5068973;28;20050;-52
2021/10/03 09:03:49;;;;;;;0.43;0.00;;;23.60;58.60;;;;;;5054001;28;20371;-51
2021/10/03 09:06:18;;;;;;;0.45;0.10;;;23.50;58.60;;;;;;5056182;28;20053;-53
2021/10/03 09:08:47;;;;;;;0.70;0.10;;;23.50;58.60;;;;;;5052576;28;20789;-51
2021/10/03 09:11:17;;;;;;;0.17;0.10;;;23.50;58.60;;;;;;5053546;28;20039;-51
2021/10/03 09:13:47;;;;;;;0.40;0.10;;;23.50;58.70;;;;;;5051871;28;20766;-48
2021/10/03 09:16:17;;;;;;;0.40;0.10;;;23.50;58.70;;;;;;5049508;28;20048;-50
2021/10/03 09:18:46;;;;;;;0.73;0.20;;;23.50;58.70;;;;;;5065149;28;20053;-48
2021/10/03 09:21:32;;;;;;;0.80;0.10;;;23.50;58.80;;;;;;5060485;28;20040;-50
2021/10/03 09:24:02;;;;;;;0.65;0.10;;;23.50;58.80;;;;;;5058378;28;20052;-49
2021/10/03 09:26:30;;;;;;;0.50;0.10;;;23.50;58.80;;;;;;5051966;28;20044;-52
2021/10/03 09:28:57;;;;;;;0.40;0.10;;;23.50;58.90;;;;;;5060714;28;20044;-53
2021/10/03 09:31:26;;;;;;;0.55;0.25;;;23.50;58.90;;;;;;5064503;28;20037;-50
2021/10/03 09:33:55;;;;;;;0.20;0.10;;;23.50;58.90;;;;;;5049644;28;20048;-50
2021/10/03 09:36:24;;;;;;;0.10;0.05;;;23.50;58.90;;;;;;5062248;28;20538;-51
2021/10/03 09:38:54;;;;;;;0.10;0.10;;;23.50;58.90;;;;;;5060400;28;20037;-52
2021/10/03 09:41:24;;;;;;;0.85;0.22;;;23.50;59.00;;;;;;5051604;28;20053;-49
2021/10/03 09:43:54;;;;;;;0.95;0.40;;;23.50;59.00;;;;;;5051586;28;20078;-48
2021/10/03 09:46:40;;;;;;;0.10;0.10;;;23.40;59.00;;;;;;5055652;28;20416;-49
2021/10/03 09:49:09;;;;;;;0.30;0.10;;;23.50;59.00;;;;;;5064925;28;20078;-48
2021/10/03 09:51:37;;;;;;;0.10;0.10;;;23.40;59.00;;;;;;5063931;28;20040;-50
2021/10/03 09:54:06;;;;;;;0.32;0.10;;;23.40;59.00;;;;;;5057728;28;20052;-47
2021/10/03 09:56:35;;;;;;;0.10;0.10;;;23.40;59.00;;;;;;5060119;28;20037;-50
2021/10/03 09:59:03;;;;;;;0.10;0.10;;;23.40;59.00;;;;;;5050825;28;20060;-48
2021/10/03 10:01:32;;;;;;;0.75;0.52;;;23.40;59.00;;;;;;5064217;28;20470;-50
2021/10/03 10:04:00;;;;;;;1.30;0.10;;;23.40;59.00;;;;;;5050502;28;20425;-50
2021/10/03 10:06:27;;;;;;;0.10;0.07;;;23.40;58.90;;;;;;5022894;28;1119712;-49
2021/10/03 10:08:56;;;;;;;0.20;0.20;;;23.40;59.60;;;;;;5057132;28;20033;-48
2021/10/03 10:11:37;;;;;;;0.10;0.00;;;23.40;58.90;;;;;;5052763;28;20525;-50
2021/10/03 10:14:05;;;;;;;0.55;0.25;;;23.40;58.90;;;;;;5052759;28;20700;-50
2021/10/03 10:16:38;;;;;;;0.10;0.10;;;23.30;58.90;;;;;;5064993;28;20039;-51
2021/10/03 10:19:28;;;;;;;0.65;0.65;;;23.40;59.00;;;;;;5050856;28;20072;-49
2021/10/03 10:22:36;;;;;;;0.10;0.10;;;23.40;58.90;;;;;;5067707;28;20036;-48
2021/10/03 10:25:16;;;;;;;0.05;0.00;;;23.40;58.90;;;;;;5059481;28;20051;-49
2021/10/03 10:28:06;;;;;;;0.35;0.30;;;23.30;59.00;;;;;;5053730;28;20705;-49
2021/10/03 10:30:38;;;;;;;0.68;0.10;;;23.40;59.00;;;;;;5063428;28;20067;-48
2021/10/03 10:33:17;;;;;;;1.33;0.10;;;23.30;59.00;;;;;;5060467;28;20132;-51
2021/10/03 10:35:45;;;;;;;0.32;0.00;;;23.30;59.00;;;;;;5055278;28;20048;-51
2021/10/03 10:38:20;;;;;;;0.55;0.00;;;23.30;59.00;;;;;;5066723;28;20048;-49
2021/10/03 10:40:50;;;;;;;0.05;0.00;;;23.30;59.00;;;;;;5050706;28;25575;-48
2021/10/03 10:43:49;;;;;;;1.10;0.00;;;23.30;59.60;;;;;;5065320;28;20120;-49
2021/10/03 10:46:45;;;;;;;0.20;0.10;;;23.30;58.90;;;;;;5067764;28;20056;-51
2021/10/03 10:49:39;;;;;;;0.00;0.00;;;23.30;58.90;;;;;;5065873;28;20421;-47
2021/10/03 10:52:39;;;;;;;0.10;0.00;;;23.30;59.00;;;;;;5053399;28;20124;-50
2021/10/03 10:55:30;;;;;;;0.00;0.00;;;23.20;58.90;;;;;;5058399;28;20131;-49
2021/10/03 10:58:09;;;;;;;0.43;0.00;;;23.20;58.90;;;;;;5053749;28;20136;-52
2021/10/03 11:01:02;;;;;;;0.00;0.00;;;23.20;59.00;;;;;;5060748;28;20036;-51
2021/10/03 11:04:03;;;;;;;0.13;0.00;;;23.20;59.00;;;;;;5061631;28;20051;-49
2021/10/03 11:07:01;;;;;;;0.10;0.00;;;23.20;58.90;;;;;;5052754;28;20045;-50
2021/10/03 11:10:10;;;;;;;0.00;0.00;;;23.20;58.90;;;;;;5051076;28;20120;-52
2021/10/03 11:12:37;;;;;;;0.00;0.00;;;23.20;59.00;;;;;;5060763;28;20052;-53
2021/10/03 11:15:24;;;;;;;0.10;0.10;;;23.20;59.00;;;;;;5061048;28;20537;-49
2021/10/03 11:17:53;;;;;;;6.20;0.25;;;23.20;58.90;;;;;;5061087;28;20041;-53
2021/10/03 11:20:20;;;;;;;0.10;0.00;;;23.20;58.90;;;;;;5061075;28;20033;-52
2021/10/03 11:22:48;;;;;;;0.43;0.00;;;23.20;58.90;;;;;;5064609;28;20496;-53
2021/10/03 11:25:24;;;;;;;0.00;0.00;;;23.20;58.80;;;;;;5063897;28;20048;-47
2021/10/03 11:27:55;;;;;;;0.08;0.00;;;23.30;58.80;;;;;;5052916;28;20049;-50
2021/10/03 11:30:22;;;;;;;0.10;0.10;;;23.30;58.70;;;;;;5058719;28;20098;-53
2021/10/03 11:32:49;;;;;;;0.63;0.10;;;23.20;58.60;;;;;;5058883;28;20041;-50
2021/10/03 11:35:18;;;;;;;0.00;0.00;;;23.30;58.50;;;;;;5047399;28;20045;-49
2021/10/03 11:37:48;;;;;;;0.00;0.00;;;23.30;58.40;;;;;;5066069;28;20136;-50
2021/10/03 11:40:17;;;;;;;0.20;0.00;;;23.30;58.40;;;;;;5047604;28;20382;-52
2021/10/03 11:42:46;;;;;;;0.00;0.00;;;23.30;58.30;;;;;;5049250;28;20215;-48
2021/10/03 11:45:16;;;;;;;0.00;0.00;;;23.30;58.20;;;;;;5050993;28;20124;-49
2021/10/03 11:47:45;;;;;;;0.82;0.00;;;23.30;58.20;;;;;;5056184;28;20672;-51
2021/10/03 11:50:17;;;;;;;0.10;0.10;;;23.30;58.10;;;;;;5055060;28;20040;-52
2021/10/03 11:52:46;;;;;;;0.00;0.00;;;23.30;58.00;;;;;;5066500;28;20119;-48
2021/10/03 11:55:17;;;;;;;0.10;0.10;;;23.40;57.90;;;;;;5048095;28;20049;-48
2021/10/03 11:57:46;;;;;;;0.20;0.00;;;23.40;57.90;;;;;;5048284;28;20540;-49
2021/10/03 12:00:16;;;;;;;4.32;0.22;;;23.40;57.80;;;;;;5058941;28;20036;-46
2021/10/03 12:02:46;;;;;;;0.70;0.00;;;23.40;57.70;;;;;;5064754;28;20102;-48
2021/10/03 12:05:16;;;;;;;0.00;0.00;;;23.40;57.60;;;;;;5062525;28;20416;-46
2021/10/03 12:07:45;;;;;;;0.00;0.00;;;23.50;57.60;;;;;;5066235;28;20052;-49
2021/10/03 12:10:14;;;;;;;0.00;0.00;;;23.50;57.60;;;;;;5048323;28;20037;-47
2021/10/03 12:12:51;;;;;;;0.10;0.00;;;23.50;57.40;;;;;;5052516;28;20057;-47
2021/10/03 12:15:34;;;;;;;;;;;23.60;57.40;;;;;;5053321;28;20049;-50
2021/10/03 12:18:01;;;;;;;0.10;0.00;;;23.50;57.30;;;;;;5054710;28;20376;-52
2021/10/03 12:20:50;;;;;;;0.00;0.00;;;23.60;57.40;;;;;;5061118;28;20508;-49
2021/10/03 12:23:20;;;;;;;0.08;0.00;;;23.60;57.20;;;;;;5050119;28;20506;-48
2021/10/03 12:25:50;;;;;;;0.03;0.03;;;23.60;57.10;;;;;;5060154;28;20068;-49
2021/10/03 12:28:18;;;;;;;0.00;0.00;;;23.60;57.00;;;;;;5047333;28;20045;-52
2021/10/03 12:30:47;;;;;;;0.00;0.00;;;23.70;56.90;;;;;;5063885;28;20044;-48
2021/10/03 12:33:14;;;;;;;0.10;0.00;;;23.70;56.80;;;;;;5055962;28;20045;-49
2021/10/03 12:35:41;;;;;;;0.30;0.00;;;23.70;56.80;;;;;;5055832;28;20055;-50
2021/10/03 12:38:08;;;;;;;0.43;0.43;;;23.70;56.70;;;;;;5062722;28;20040;-47
2021/10/03 12:40:37;;;;;;;3.22;0.00;;;23.70;56.60;;;;;;5050468;28;20614;-48
2021/10/03 12:43:04;;;;;;;0.38;0.00;;;23.70;56.60;;;;;;5053845;28;20028;-50
2021/10/03 12:45:31;;;;;;;0.00;0.00;;;23.70;56.50;;;;;;5053253;28;20421;-52
2021/10/03 12:47:58;;;;;;;0.10;0.00;;;23.70;56.40;;;;;;5056219;28;20052;-48
2021/10/03 12:50:25;;;;;;;0.10;0.00;;;23.80;56.30;;;;;;5052918;28;20032;-48
2021/10/03 12:52:52;;;;;;;0.00;0.00;;;23.70;56.20;;;;;;5050373;28;20536;-52
2021/10/03 12:55:19;;;;;;;0.20;0.10;;;23.80;56.20;;;;;;5047596;28;20041;-53
2021/10/03 12:57:47;;;;;;;1.58;0.00;;;23.80;56.10;;;;;;5049813;28;20513;-51
2021/10/03 13:00:15;;;;;;;0.10;0.00;;;23.80;56.00;;;;;;5059104;28;20154;-48